createdAt,value
2018-09-18T00:01:07.902Z,24.63
2018-09-18T00:03:36.093Z,24.00
2018-09-18T00:06:04.397Z,23.70
2018-09-18T00:08:32.630Z,21.90
2018-09-18T00:11:00.825Z,20.80
2018-09-18T00:13:29.001Z,22.17
2018-09-18T00:15:57.266Z,21.13
2018-09-18T00:18:25.455Z,21.03
2018-09-18T00:20:53.717Z,20.97
2018-09-18T00:23:21.905Z,20.87
2018-09-18T00:25:50.097Z,21.07
2018-09-18T00:28:18.271Z,20.77
2018-09-18T00:30:46.513Z,18.70
2018-09-18T00:33:14.805Z,19.60
2018-09-18T00:35:43.197Z,20.17
2018-09-18T00:38:11.377Z,20.47
2018-09-18T00:40:39.605Z,20.97
2018-09-18T00:43:07.878Z,21.97
2018-09-18T00:45:36.053Z,21.40
2018-09-18T00:48:04.493Z,21.07
2018-09-18T00:50:32.968Z,21.20
2018-09-18T00:53:01.326Z,20.60
2018-09-18T00:55:29.946Z,22.00
2018-09-18T00:57:58.120Z,19.97
2018-09-18T01:00:26.325Z,21.60
2018-09-18T01:02:54.512Z,21.57
2018-09-18T01:05:22.802Z,20.83
2018-09-18T01:07:51.114Z,22.10
2018-09-18T01:10:19.333Z,19.30
2018-09-18T01:12:47.906Z,21.20
2018-09-18T01:15:16.584Z,21.60
2018-09-18T01:17:44.789Z,20.43
2018-09-18T01:20:13.049Z,21.47
2018-09-18T01:22:41.223Z,21.20
2018-09-18T01:25:09.840Z,20.40
2018-09-18T01:27:38.174Z,21.50
2018-09-18T01:30:06.373Z,21.77
2018-09-18T01:32:34.852Z,23.53
2018-09-18T01:35:03.024Z,21.90
2018-09-18T01:37:31.273Z,23.50
2018-09-18T01:39:59.564Z,22.83
2018-09-18T01:42:27.761Z,25.30
2018-09-18T01:44:56.061Z,23.93
2018-09-18T01:47:24.236Z,24.00
2018-09-18T01:49:52.666Z,21.87
2018-09-18T01:52:20.828Z,23.00
2018-09-18T01:54:49.290Z,24.07
2018-09-18T01:57:17.484Z,24.70
2018-09-18T01:59:45.662Z,24.10
2018-09-18T02:02:13.935Z,23.10
2018-09-18T02:04:42.124Z,23.77
2018-09-18T02:07:10.618Z,22.90
2018-09-18T02:09:38.818Z,23.37
2018-09-18T02:12:07.012Z,23.43
2018-09-18T02:14:35.528Z,24.30
2018-09-18T02:17:03.718Z,22.80
2018-09-18T02:19:31.982Z,22.10
2018-09-18T02:22:00.482Z,24.23
2018-09-18T02:24:29.078Z,22.47
2018-09-18T02:26:57.240Z,23.73
2018-09-18T02:29:25.487Z,24.13
2018-09-18T02:31:53.681Z,23.20
2018-09-18T02:34:21.877Z,22.50
2018-09-18T02:36:50.124Z,23.83
2018-09-18T02:39:18.720Z,23.60
2018-09-18T02:41:46.909Z,22.57
2018-09-18T02:44:15.133Z,22.83
2018-09-18T02:46:43.337Z,25.10
2018-09-18T02:49:11.606Z,23.27
2018-09-18T02:51:39.808Z,23.40
2018-09-18T02:54:08.007Z,24.70
2018-09-18T02:56:36.187Z,26.10
2018-09-18T02:59:04.674Z,22.70
2018-09-18T03:01:33.128Z,24.37
2018-09-18T03:04:01.694Z,23.73
2018-09-18T03:06:30.169Z,23.53
2018-09-18T03:08:58.444Z,23.07
2018-09-18T03:11:26.658Z,22.70
2018-09-18T03:13:54.882Z,24.50
2018-09-18T03:16:23.077Z,23.80
2018-09-18T03:18:51.262Z,25.10
2018-09-18T03:21:19.510Z,22.40
2018-09-18T03:23:47.690Z,23.10
2018-09-18T03:26:16.048Z,23.07
2018-09-18T03:28:44.227Z,23.30
2018-09-18T03:31:12.422Z,23.23
2018-09-18T03:33:40.597Z,22.20
2018-09-18T03:36:08.810Z,23.50
2018-09-18T03:38:37.006Z,21.97
2018-09-18T03:41:05.193Z,21.77
2018-09-18T03:43:33.370Z,21.93
2018-09-18T03:46:01.586Z,23.73
2018-09-18T03:48:29.754Z,22.43
2018-09-18T03:50:57.937Z,23.73
2018-09-18T03:53:26.189Z,23.20
2018-09-18T03:55:54.659Z,23.30
2018-09-18T03:58:22.935Z,21.17
2018-09-18T04:00:51.159Z,23.33
2018-09-18T04:03:19.414Z,22.20
2018-09-18T04:05:47.589Z,22.60
2018-09-18T04:08:16.863Z,22.60
2018-09-18T04:10:45.444Z,21.60
2018-09-18T04:13:13.983Z,21.60
2018-09-18T04:15:42.677Z,23.13
2018-09-18T04:18:12.587Z,23.27
2018-09-18T04:20:40.756Z,30.70
2018-09-18T04:23:09.297Z,24.20
2018-09-18T04:25:37.472Z,21.87
2018-09-18T04:28:05.735Z,21.53
2018-09-18T04:30:33.951Z,19.60
2018-09-18T04:33:02.112Z,22.10
2018-09-18T04:35:30.305Z,20.70
2018-09-18T04:37:58.498Z,18.23
2018-09-18T04:40:26.698Z,19.70
2018-09-18T04:42:54.978Z,20.17
2018-09-18T04:45:23.286Z,19.03
2018-09-18T04:47:51.477Z,19.13
2018-09-18T04:50:19.926Z,17.20
2018-09-18T04:52:48.097Z,18.40
2018-09-18T04:55:16.592Z,18.12
2018-09-18T04:57:44.827Z,19.10
2018-09-18T05:00:13.184Z,19.40
2018-09-18T05:02:42.005Z,19.30
2018-09-18T05:05:10.285Z,20.07
2018-09-18T05:07:38.477Z,20.47
2018-09-18T05:10:06.797Z,20.33
2018-09-18T05:12:34.988Z,20.70
2018-09-18T05:15:03.209Z,21.00
2018-09-18T05:17:31.465Z,22.20
2018-09-18T05:19:59.663Z,22.90
2018-09-18T05:22:27.928Z,22.90
2018-09-18T05:24:56.199Z,23.20
2018-09-18T05:27:24.641Z,22.43
2018-09-18T05:29:52.836Z,22.90
2018-09-18T05:32:21.116Z,24.57
2018-09-18T05:34:49.550Z,24.00
2018-09-18T05:37:17.790Z,24.03
2018-09-18T05:39:46.000Z,26.03
2018-09-18T05:42:14.224Z,25.07
2018-09-18T05:44:42.422Z,25.93
2018-09-18T05:47:11.226Z,24.93
2018-09-18T05:49:39.994Z,24.10
2018-09-18T05:52:08.201Z,22.20
2018-09-18T05:54:36.481Z,22.70
2018-09-18T05:57:04.945Z,20.90
2018-09-18T05:59:33.501Z,22.60
2018-09-18T06:02:01.767Z,22.57
2018-09-18T06:04:30.096Z,24.53
2018-09-18T06:06:58.265Z,25.17
2018-09-18T06:09:26.489Z,22.93
2018-09-18T06:11:54.777Z,24.23
2018-09-18T06:14:23.271Z,23.37
2018-09-18T06:16:51.749Z,21.47
2018-09-18T06:19:20.024Z,22.00
2018-09-18T06:21:48.199Z,19.57
2018-09-18T06:24:16.612Z,20.93
2018-09-18T06:26:44.790Z,22.10
2018-09-18T06:29:12.998Z,19.97
2018-09-18T06:31:41.184Z,19.63
2018-09-18T06:34:09.364Z,19.37
2018-09-18T06:36:37.882Z,20.10
2018-09-18T06:39:08.471Z,19.87
2018-09-18T06:41:36.746Z,18.87
2018-09-18T06:44:04.969Z,18.67
2018-09-18T06:46:33.258Z,19.50
2018-09-18T06:49:01.430Z,19.80
2018-09-18T06:51:29.969Z,19.37
2018-09-18T06:53:58.246Z,20.10
2018-09-18T06:56:26.449Z,21.07
2018-09-18T06:58:55.006Z,21.07
2018-09-18T07:01:23.485Z,20.30
2018-09-18T07:03:51.704Z,21.13
2018-09-18T07:06:20.140Z,20.07
2018-09-18T07:08:48.429Z,21.03
2018-09-18T07:11:16.614Z,19.50
2018-09-18T07:13:44.873Z,21.10
2018-09-18T07:16:13.040Z,19.77
2018-09-18T07:18:41.305Z,21.20
2018-09-18T07:21:09.571Z,21.53
2018-09-18T07:23:37.786Z,19.80
2018-09-18T07:26:06.004Z,19.67
2018-09-18T07:28:34.208Z,19.13
2018-09-18T07:31:02.392Z,19.07
2018-09-18T07:33:30.878Z,20.10
2018-09-18T07:35:59.066Z,20.80
2018-09-18T07:38:27.431Z,20.70
2018-09-18T07:40:55.700Z,20.03
2018-09-18T07:43:24.276Z,20.60
2018-09-18T07:45:52.466Z,21.10
2018-09-18T07:48:20.665Z,21.57
2018-09-18T07:50:48.904Z,20.37
2018-09-18T07:53:17.168Z,21.93
2018-09-18T07:55:45.346Z,18.43
2018-09-18T07:58:13.542Z,19.97
2018-09-18T08:00:41.749Z,19.47
2018-09-18T08:03:10.314Z,21.87
2018-09-18T08:05:38.506Z,20.00
2018-09-18T08:08:06.708Z,20.50
2018-09-18T08:10:34.884Z,20.00
2018-09-18T08:13:03.390Z,20.27
2018-09-18T08:15:31.690Z,19.63
2018-09-18T08:17:59.858Z,18.13
2018-09-18T08:20:28.128Z,20.53
2018-09-18T08:22:56.318Z,20.30
2018-09-18T08:25:24.582Z,19.07
2018-09-18T08:27:52.770Z,19.80
2018-09-18T08:30:20.948Z,20.90
2018-09-18T08:32:49.172Z,20.63
2018-09-18T08:35:17.362Z,21.00
2018-09-18T08:37:45.563Z,20.00
2018-09-18T08:40:13.811Z,18.97
2018-09-18T08:42:42.155Z,18.10
2018-09-18T08:45:10.375Z,20.27
2018-09-18T08:47:38.547Z,17.70
2018-09-18T08:50:06.817Z,19.70
2018-09-18T08:52:35.029Z,18.10
2018-09-18T08:55:03.198Z,19.33
2018-09-18T08:57:31.671Z,18.03
2018-09-18T08:59:59.852Z,18.87
2018-09-18T09:02:28.090Z,18.30
2018-09-18T09:04:56.276Z,17.37
2018-09-18T09:07:24.477Z,18.47
2018-09-18T09:09:52.667Z,20.17
2018-09-18T09:12:20.882Z,18.40
2018-09-18T09:14:49.183Z,19.90
2018-09-18T09:17:17.336Z,22.13
2018-09-18T09:19:45.529Z,20.10
2018-09-18T09:22:13.811Z,18.80
2018-09-18T09:24:41.945Z,19.50
2018-09-18T09:27:10.745Z,18.10
2018-09-18T09:29:39.030Z,17.97
2018-09-18T09:32:07.327Z,17.87
2018-09-18T09:34:35.565Z,18.67
2018-09-18T09:37:03.800Z,19.77
2018-09-18T09:39:31.921Z,18.53
2018-09-18T09:42:00.109Z,20.00
2018-09-18T09:44:28.363Z,17.60
2018-09-18T09:46:56.532Z,16.50
2018-09-18T09:49:24.723Z,18.33
2018-09-18T09:51:52.989Z,18.90
2018-09-18T09:54:21.316Z,17.30
2018-09-18T09:56:49.518Z,17.40
2018-09-18T09:59:17.772Z,20.57
2018-09-18T10:01:55.444Z,15.60
2018-09-18T10:04:23.987Z,16.20
2018-09-18T10:06:52.427Z,18.37
2018-09-18T10:09:21.174Z,17.20
2018-09-18T10:11:49.426Z,17.57
2018-09-18T10:14:18.012Z,16.60
2018-09-18T10:16:46.218Z,16.23
2018-09-18T10:19:14.464Z,18.03
2018-09-18T10:21:42.648Z,16.43
2018-09-18T10:24:11.233Z,16.90
2018-09-18T10:26:39.903Z,16.87
2018-09-18T10:29:08.159Z,17.17
2018-09-18T10:31:36.393Z,16.77
2018-09-18T10:34:04.635Z,15.73
2018-09-18T10:36:32.833Z,15.20
2018-09-18T10:39:01.045Z,13.20
2018-09-18T10:41:29.749Z,16.73
2018-09-18T10:43:57.782Z,14.47
2018-09-18T10:46:25.998Z,14.50
2018-09-18T10:48:57.057Z,15.30
2018-09-18T10:51:25.393Z,11.60
2018-09-18T10:53:53.874Z,12.63
2018-09-18T10:56:22.253Z,13.40
2018-09-18T10:58:50.465Z,11.57
2018-09-18T11:01:19.637Z,14.63
2018-09-18T11:03:47.858Z,13.80
2018-09-18T11:06:16.031Z,13.37
2018-09-18T11:08:44.300Z,12.90
2018-09-18T11:11:12.619Z,11.17
2018-09-18T11:13:40.781Z,11.67
2018-09-18T11:16:09.198Z,12.10
2018-09-18T11:18:37.244Z,13.77
2018-09-18T11:21:05.577Z,12.47
2018-09-18T11:23:33.748Z,12.53
2018-09-18T11:26:02.029Z,11.60
2018-09-18T11:28:30.271Z,14.80
2018-09-18T11:30:58.427Z,11.70
2018-09-18T11:33:26.620Z,11.40
2018-09-18T11:35:54.842Z,11.00
2018-09-18T11:38:23.033Z,11.70
2018-09-18T11:40:51.280Z,10.53
2018-09-18T11:43:19.574Z,13.63
2018-09-18T11:45:48.077Z,11.05
2018-09-18T11:48:16.229Z,11.12
2018-09-18T11:50:44.418Z,10.38
2018-09-18T11:53:12.589Z,10.40
2018-09-18T11:55:40.830Z,10.32
2018-09-18T11:58:09.127Z,10.28
2018-09-18T12:00:37.397Z,10.38
2018-09-18T12:03:05.616Z,8.70
2018-09-18T12:05:34.142Z,8.73
2018-09-18T12:08:02.316Z,9.80
2018-09-18T12:10:30.489Z,9.70
2018-09-18T12:12:58.731Z,10.05
2018-09-18T12:15:27.090Z,9.58
2018-09-18T12:17:55.273Z,9.15
2018-09-18T12:20:23.533Z,8.85
2018-09-18T12:22:51.777Z,8.93
2018-09-18T12:25:19.942Z,8.95
2018-09-18T12:27:48.170Z,9.53
2018-09-18T12:30:16.402Z,9.83
2018-09-18T12:32:44.578Z,8.48
2018-09-18T12:35:12.924Z,9.53
2018-09-18T12:37:41.046Z,9.10
2018-09-18T12:40:09.254Z,8.73
2018-09-18T12:42:37.978Z,10.55
2018-09-18T12:45:06.092Z,10.45
2018-09-18T12:47:34.258Z,8.45
2018-09-18T12:50:02.816Z,8.10
2018-09-18T12:52:30.630Z,7.85
2018-09-18T12:54:58.813Z,7.83
2018-09-18T12:57:27.114Z,9.18
2018-09-18T12:59:56.770Z,10.53
2018-09-18T13:02:24.958Z,10.13
2018-09-18T13:04:53.081Z,8.73
2018-09-18T13:07:21.269Z,8.58
2018-09-18T13:09:49.588Z,8.23
2018-09-18T13:12:17.813Z,8.28
2018-09-18T13:14:46.085Z,8.38
2018-09-18T13:17:14.372Z,7.83
2018-09-18T13:19:42.674Z,7.62
2018-09-18T13:22:10.856Z,7.35
2018-09-18T13:24:39.289Z,7.92
2018-09-18T13:27:07.471Z,8.65
2018-09-18T13:29:35.751Z,6.85
2018-09-18T13:32:04.043Z,8.40
2018-09-18T13:34:32.353Z,8.03
2018-09-18T13:37:00.537Z,8.98
2018-09-18T13:39:28.935Z,8.80
2018-09-18T13:41:57.124Z,9.00
2018-09-18T13:44:25.316Z,7.90
2018-09-18T13:46:53.768Z,8.30
2018-09-18T13:49:22.130Z,8.48
2018-09-18T13:51:50.374Z,8.25
2018-09-18T13:54:18.577Z,7.83
2018-09-18T13:56:46.919Z,7.85
2018-09-18T13:59:15.002Z,8.83
2018-09-18T14:01:43.635Z,8.03
2018-09-18T14:04:11.745Z,9.43
2018-09-18T14:06:39.884Z,9.00
2018-09-18T14:09:08.879Z,8.58
2018-09-18T14:11:37.402Z,7.90
2018-09-18T14:14:05.599Z,7.80
2018-09-18T14:16:33.781Z,9.33
2018-09-18T14:19:01.984Z,8.65
2018-09-18T14:21:30.516Z,8.60
2018-09-18T14:23:58.993Z,8.05
2018-09-18T14:26:27.555Z,8.43
2018-09-18T14:28:56.003Z,8.75
2018-09-18T14:31:24.266Z,8.08
2018-09-18T14:33:52.523Z,8.70
2018-09-18T14:36:20.726Z,8.28
2018-09-18T14:38:49.146Z,8.88
2018-09-18T14:41:17.583Z,7.95
2018-09-18T14:43:45.884Z,10.95
2018-09-18T14:46:14.046Z,9.73
2018-09-18T14:48:42.394Z,7.60
2018-09-18T14:51:10.605Z,8.98
2018-09-18T14:53:38.733Z,9.18
2018-09-18T14:56:06.978Z,8.70
2018-09-18T14:58:35.496Z,9.57
2018-09-18T15:01:03.665Z,9.43
2018-09-18T15:03:31.939Z,8.80
2018-09-18T15:06:00.137Z,14.00
2018-09-18T15:08:28.404Z,8.87
2018-09-18T15:10:56.601Z,9.20
2018-09-18T15:13:24.798Z,9.17
2018-09-18T15:15:52.986Z,9.60
2018-09-18T15:18:21.173Z,9.30
2018-09-18T15:20:49.605Z,10.37
2018-09-18T15:23:18.017Z,9.40
2018-09-18T15:25:46.229Z,11.40
2018-09-18T15:28:14.415Z,10.50
2018-09-18T15:30:42.658Z,10.77
2018-09-18T15:33:10.860Z,9.80
2018-09-18T15:35:39.090Z,9.77
2018-09-18T15:38:07.268Z,10.73
2018-09-18T15:40:35.778Z,9.93
2018-09-18T15:43:04.046Z,10.43
2018-09-18T15:45:32.209Z,9.73
2018-09-18T15:48:00.382Z,10.57
2018-09-18T15:50:28.568Z,8.77
2018-09-18T15:52:56.767Z,10.53
2018-09-18T15:55:25.051Z,9.07
2018-09-18T15:57:53.483Z,11.43
2018-09-18T16:00:21.623Z,10.10
2018-09-18T16:02:49.884Z,10.53
2018-09-18T16:05:18.154Z,9.53
2018-09-18T16:07:46.340Z,10.40
2018-09-18T16:10:14.534Z,26.57
2018-09-18T16:12:42.789Z,13.67
2018-09-18T16:15:11.086Z,9.67
2018-09-18T16:17:39.278Z,10.07
2018-09-18T16:20:07.591Z,9.63
2018-09-18T16:22:35.894Z,8.70
2018-09-18T16:25:04.087Z,10.77
2018-09-18T16:27:34.838Z,10.90
2018-09-18T16:30:03.020Z,9.80
2018-09-18T16:32:31.344Z,9.30
2018-09-18T16:34:59.524Z,10.13
2018-09-18T16:37:27.734Z,9.53
2018-09-18T16:39:55.925Z,9.37
2018-09-18T16:42:24.135Z,18.93
2018-09-18T16:44:52.326Z,31.63
2018-09-18T16:47:20.788Z,43.73
2018-09-18T16:49:49.048Z,14.57
2018-09-18T16:52:17.662Z,14.50
2018-09-18T16:54:45.859Z,11.80
2018-09-18T16:57:14.392Z,10.07
2018-09-18T16:59:42.562Z,9.70
2018-09-18T17:02:10.853Z,10.90
2018-09-18T17:04:39.066Z,13.70
2018-09-18T17:07:07.142Z,10.30
2018-09-18T17:09:35.390Z,10.70
2018-09-18T17:12:03.573Z,13.10
2018-09-18T17:14:31.848Z,12.13
2018-09-18T17:17:00.086Z,17.50
2018-09-18T17:19:28.278Z,16.23
2018-09-18T17:21:56.465Z,33.73
2018-09-18T17:24:24.942Z,36.53
2018-09-18T17:26:53.420Z,12.83
2018-09-18T17:29:21.614Z,10.40
2018-09-18T17:31:49.873Z,70.20
2018-09-18T17:34:18.175Z,58.67
2018-09-18T17:36:46.326Z,40.13
2018-09-18T17:39:14.529Z,29.13
2018-09-18T17:41:42.885Z,19.27
2018-09-18T17:44:11.452Z,30.43
2018-09-18T17:46:39.782Z,31.63
2018-09-18T17:49:08.119Z,22.60
2018-09-18T17:51:36.300Z,18.63
2018-09-18T17:54:04.607Z,16.20
2018-09-18T17:56:32.788Z,18.97
2018-09-18T17:59:01.009Z,14.27
2018-09-18T18:01:29.462Z,13.40
2018-09-18T18:03:57.966Z,13.20
2018-09-18T18:06:26.143Z,13.97
2018-09-18T18:08:54.503Z,14.97
2018-09-18T18:11:22.699Z,16.90
2018-09-18T18:13:50.888Z,13.23
2018-09-18T18:16:19.082Z,13.43
2018-09-18T18:18:47.271Z,13.50
2018-09-18T18:21:15.499Z,14.37
2018-09-18T18:23:43.787Z,14.10
2018-09-18T18:26:12.044Z,13.83
2018-09-18T18:28:40.324Z,13.93
2018-09-18T18:31:08.528Z,12.40
2018-09-18T18:33:36.819Z,13.70
2018-09-18T18:36:05.016Z,13.80
2018-09-18T18:38:33.248Z,16.53
2018-09-18T18:41:01.609Z,15.03
2018-09-18T18:43:29.709Z,14.27
2018-09-18T18:45:57.932Z,12.57
2018-09-18T18:48:26.902Z,12.17
2018-09-18T18:50:55.404Z,12.23
2018-09-18T18:53:23.644Z,13.90
2018-09-18T18:55:51.874Z,12.90
2018-09-18T18:58:20.159Z,14.80
2018-09-18T19:00:48.346Z,15.03
2018-09-18T19:03:16.602Z,13.47
2018-09-18T19:05:44.922Z,12.67
2018-09-18T19:08:13.142Z,14.50
2018-09-18T19:10:41.366Z,18.47
2018-09-18T19:13:09.555Z,13.57
2018-09-18T19:15:37.800Z,12.83
2018-09-18T19:18:06.064Z,13.90
2018-09-18T19:20:34.253Z,13.30
2018-09-18T19:23:02.554Z,13.70
2018-09-18T19:25:30.833Z,28.40
2018-09-18T19:27:59.326Z,64.13
2018-09-18T19:30:27.669Z,31.10
2018-09-18T19:32:55.890Z,14.30
2018-09-18T19:35:24.385Z,14.27
2018-09-18T19:37:52.570Z,13.70
2018-09-18T19:40:20.813Z,13.73
2018-09-18T19:42:49.020Z,13.80
2018-09-18T19:45:17.307Z,14.40
2018-09-18T19:47:45.619Z,14.13
2018-09-18T19:50:18.626Z,14.13
2018-09-18T19:52:47.860Z,14.03
2018-09-18T19:55:16.736Z,14.80
2018-09-18T19:57:45.349Z,14.13
2018-09-18T20:00:13.856Z,15.50
2018-09-18T20:02:42.757Z,15.17
2018-09-18T20:05:11.453Z,19.47
2018-09-18T20:07:39.623Z,15.57
2018-09-18T20:10:07.853Z,15.93
2018-09-18T20:12:36.073Z,16.27
2018-09-18T20:15:04.290Z,16.70
2018-09-18T20:17:32.469Z,16.03
2018-09-18T20:20:00.670Z,15.67
2018-09-18T20:22:28.900Z,15.10
2018-09-18T20:24:57.437Z,13.40
2018-09-18T20:27:26.247Z,14.73
2018-09-18T20:29:54.504Z,14.53
2018-09-18T20:32:22.706Z,14.50
2018-09-18T20:34:50.914Z,15.27
2018-09-18T20:37:19.165Z,13.20
2018-09-18T20:39:47.447Z,13.20
2018-09-18T20:42:15.661Z,12.73
2018-09-18T20:44:43.957Z,11.90
2018-09-18T20:47:12.191Z,12.37
2018-09-18T20:49:40.459Z,11.60
2018-09-18T20:52:08.743Z,11.83
2018-09-18T20:54:36.935Z,11.27
2018-09-18T20:57:05.180Z,12.37
2018-09-18T20:59:33.449Z,11.80
2018-09-18T21:02:01.645Z,10.83
2018-09-18T21:04:29.858Z,11.43
2018-09-18T21:06:58.052Z,11.60
2018-09-18T21:09:26.246Z,12.53
2018-09-18T21:11:54.440Z,16.77
2018-09-18T21:14:22.628Z,29.90
2018-09-18T21:16:50.932Z,12.17
2018-09-18T21:19:21.992Z,11.40
2018-09-18T21:21:50.254Z,10.70
2018-09-18T21:24:19.964Z,10.40
2018-09-18T21:26:48.317Z,10.37
2018-09-18T21:29:16.842Z,7.17
2018-09-18T21:31:45.126Z,8.30
2018-09-18T21:34:13.422Z,8.13
2018-09-18T21:36:41.690Z,8.17
2018-09-18T21:39:10.734Z,7.03
2018-09-18T21:41:38.913Z,6.90
2018-09-18T21:44:11.267Z,6.70
2018-09-18T21:46:39.738Z,7.70
2018-09-18T21:49:08.296Z,6.97
2018-09-18T21:51:36.962Z,5.67
2018-09-18T21:54:05.133Z,6.20
2018-09-18T21:56:33.317Z,5.37
2018-09-18T21:59:01.617Z,5.10
2018-09-18T22:01:30.205Z,5.10
2018-09-18T22:03:58.355Z,4.93
2018-09-18T22:06:26.536Z,5.00
2018-09-18T22:08:54.871Z,5.27
2018-09-18T22:11:23.144Z,5.20
2018-09-18T22:13:51.325Z,4.60
2018-09-18T22:16:19.538Z,4.43
2018-09-18T22:18:48.063Z,4.13
2018-09-18T22:21:16.487Z,4.40
2018-09-18T22:23:44.672Z,4.23
2018-09-18T22:26:12.930Z,4.20
2018-09-18T22:28:41.108Z,4.10
2018-09-18T22:31:09.312Z,4.10
2018-09-18T22:33:37.559Z,4.00
2018-09-18T22:36:05.743Z,4.10
2018-09-18T22:38:33.925Z,3.30
2018-09-18T22:41:02.189Z,3.50
2018-09-18T22:43:30.361Z,3.10
2018-09-18T22:45:58.655Z,3.23
2018-09-18T22:48:26.917Z,3.40
2018-09-18T22:50:55.195Z,3.83
2018-09-18T22:53:23.385Z,2.80
2018-09-18T22:55:51.649Z,3.50
2018-09-18T22:58:19.837Z,3.77
2018-09-18T23:00:48.235Z,3.50
2018-09-18T23:03:16.620Z,3.83
2018-09-18T23:05:44.808Z,3.93
2018-09-18T23:08:13.409Z,3.93
2018-09-18T23:10:41.592Z,3.97
2018-09-18T23:13:09.931Z,3.43
2018-09-18T23:15:38.388Z,3.27
2018-09-18T23:18:06.653Z,3.80
2018-09-18T23:20:34.922Z,2.70
2018-09-18T23:23:03.170Z,3.33
2018-09-18T23:25:31.520Z,2.80
2018-09-18T23:27:59.898Z,2.93
2018-09-18T23:30:28.085Z,2.60
2018-09-18T23:32:56.295Z,2.97
2018-09-18T23:35:24.638Z,3.13
2018-09-18T23:37:52.847Z,2.57
2018-09-18T23:40:21.134Z,2.20
2018-09-18T23:42:49.607Z,2.83
2018-09-18T23:45:17.804Z,2.43
2018-09-18T23:47:45.984Z,2.60
2018-09-18T23:50:14.233Z,2.70
2018-09-18T23:52:42.423Z,2.80
2018-09-18T23:55:10.698Z,2.50
2018-09-18T23:57:38.951Z,2.20
